Wetterstation Vordersexau
Wetterdaten: Woche 15.12.14 - 21.12.14 (KW51)
Datum Zeit Temp. A. Feuchte A. Luftdruck Regen Wind Richtung Taupunkt Windchill Windben
15.12.2014 00:00 7,6 C 85 % 987,6 hPa 0,0 l/m 0,0 km/h O-SO 5,2 C 7,6 C 0,0 km/h
15.12.2014 01:00 7,4 C 85 % 987,3 hPa 0,0 l/m 0,0 km/h O-SO 5,0 C 7,4 C 0,0 km/h
15.12.2014 02:00 7,5 C 85 % 987,4 hPa 0,0 l/m 0,0 km/h O-SO 5,1 C 7,5 C 0,0 km/h
15.12.2014 03:00 7,9 C 84 % 986,9 hPa 0,0 l/m 0,0 km/h S-SW 5,4 C 7,9 C 0,0 km/h
15.12.2014 04:00 9,6 C 84 % 986,8 hPa 0,2 l/m 1,4 km/h W-SW 7,0 C 9,6 C 1,4 km/h
15.12.2014 05:00 9,5 C 84 % 987,0 hPa 0,0 l/m 0,0 km/h W-SW 6,9 C 9,5 C 0,0 km/h
15.12.2014 06:00 9,7 C 85 % 987,2 hPa 0,0 l/m 8,4 km/h S 7,3 C 8,3 C 4,7 km/h
15.12.2014 07:00 9,6 C 86 % 987,4 hPa 0,0 l/m 7,8 km/h W-NW 7,4 C 8,6 C 4,3 km/h
15.12.2014 08:00 9,8 C 87 % 987,7 hPa 0,0 l/m 0,0 km/h SW 7,7 C 9,8 C 0,0 km/h
15.12.2014 09:00 9,9 C 87 % 987,9 hPa 0,0 l/m 0,0 km/h W-SW 7,8 C 9,9 C 0,0 km/h
15.12.2014 10:00 10,5 C 87 % 988,4 hPa 0,0 l/m 2,6 km/h W-SW 8,4 C 10,5 C 1,4 km/h
15.12.2014 11:00 10,7 C 86 % 987,9 hPa 0,0 l/m 11,0 km/h W-NW 8,5 C 7,8 C 6,1 km/h
15.12.2014 12:00 10,7 C 86 % 987,8 hPa 0,0 l/m 18,0 km/h W-NW 8,5 C 4,9 C 18,0 km/h
15.12.2014 13:00 10,6 C 86 % 987,4 hPa 0,0 l/m 1,4 km/h W-SW 8,4 C 10,6 C 1,4 km/h
15.12.2014 14:00 10,3 C 86 % 987,4 hPa 0,0 l/m 2,5 km/h W-SW 8,1 C 10,3 C 2,5 km/h
15.12.2014 15:00 9,9 C 86 % 987,3 hPa 0,0 l/m 2,5 km/h NW 7,7 C 9,9 C 2,5 km/h
15.12.2014 16:00 9,3 C 87 % 987,6 hPa 0,0 l/m 0,0 km/h W-SW 7,2 C 9,3 C 0,0 km/h
15.12.2014 17:00 8,8 C 87 % 987,6 hPa 0,0 l/m 4,7 km/h W 6,8 C 8,8 C 4,7 km/h
15.12.2014 18:00 8,4 C 86 % 987,3 hPa 0,0 l/m 0,0 km/h W 6,2 C 8,4 C 0,0 km/h
15.12.2014 19:00 7,8 C 87 % 987,2 hPa 0,0 l/m 0,0 km/h W 5,8 C 7,8 C 0,0 km/h
15.12.2014 20:00 6,2 C 87 % 987,3 hPa 0,0 l/m 0,0 km/h N 4,2 C 6,2 C 0,0 km/h
15.12.2014 21:00 5,1 C 87 % 987,2 hPa 0,0 l/m 0,0 km/h NO 3,1 C 5,1 C 0,0 km/h
15.12.2014 22:00 5,0 C 87 % 986,9 hPa 0,0 l/m 0,0 km/h NO 3,0 C 5,0 C 0,0 km/h
15.12.2014 23:00 5,1 C 87 % 986,6 hPa 0,0 l/m 0,0 km/h N-NO 3,1 C 5,1 C 0,0 km/h
16.12.2014 00:00 4,7 C 87 % 986,0 hPa 0,0 l/m 0,0 km/h N-NO 2,7 C 4,7 C 0,0 km/h
16.12.2014 01:00 3,8 C 87 % 985,9 hPa 0,0 l/m 0,0 km/h O-NO 1,8 C 3,8 C 0,0 km/h
16.12.2014 02:00 2,3 C 87 % 985,4 hPa 0,0 l/m 0,0 km/h O-NO 0,4 C 2,3 C 0,0 km/h
16.12.2014 03:00 2,9 C 86 % 985,3 hPa 0,0 l/m 0,0 km/h O-NO 0,8 C 2,9 C 0,0 km/h
16.12.2014 04:00 3,6 C 86 % 984,9 hPa 0,0 l/m 0,0 km/h O-SO 1,5 C 3,6 C 0,0 km/h
16.12.2014 05:00 4,1 C 85 % 984,8 hPa 0,0 l/m 0,0 km/h O-SO 1,8 C 4,1 C 0,0 km/h
16.12.2014 06:00 4,4 C 85 % 984,6 hPa 0,0 l/m 0,0 km/h O-SO 2,1 C 4,4 C 0,0 km/h
16.12.2014 07:00 4,9 C 84 % 984,9 hPa 0,0 l/m 0,0 km/h SO 2,4 C 4,9 C 0,0 km/h
16.12.2014 08:00 5,2 C 84 % 985,1 hPa 0,0 l/m 0,0 km/h O-SO 2,7 C 5,2 C 0,0 km/h
16.12.2014 09:00 6,6 C 85 % 985,0 hPa 0,0 l/m 0,0 km/h N-NW 4,3 C 6,6 C 0,0 km/h
16.12.2014 10:00 6,8 C 87 % 985,5 hPa 0,0 l/m 0,0 km/h O 4,8 C 6,8 C 0,0 km/h
16.12.2014 11:00 7,6 C 87 % 985,1 hPa 0,0 l/m 0,0 km/h W 5,6 C 7,6 C 0,0 km/h
16.12.2014 12:00 9,8 C 80 % 984,9 hPa 0,0 l/m 0,0 km/h W 6,5 C 9,8 C 0,0 km/h
16.12.2014 13:00 8,7 C 81 % 984,4 hPa 0,0 l/m 0,0 km/h SO 5,6 C 8,7 C 0,0 km/h
16.12.2014 14:00 8,1 C 82 % 984,4 hPa 0,0 l/m 0,0 km/h SO 5,2 C 8,1 C 0,0 km/h
16.12.2014 15:00 7,3 C 83 % 984,8 hPa 0,0 l/m 0,0 km/h SO 4,6 C 7,3 C 0,0 km/h
16.12.2014 16:00 6,7 C 85 % 984,7 hPa 0,0 l/m 0,0 km/h O-SO 4,4 C 6,7 C 0,0 km/h
16.12.2014 17:00 6,4 C 86 % 985,3 hPa 0,0 l/m 0,0 km/h O-SO 4,2 C 6,4 C 0,0 km/h
16.12.2014 18:00 6,1 C 87 % 985,7 hPa 0,0 l/m 0,0 km/h O-SO 4,1 C 6,1 C 0,0 km/h
16.12.2014 19:00 6,1 C 87 % 986,3 hPa 0,0 l/m 0,0 km/h W 4,1 C 6,1 C 0,0 km/h
16.12.2014 20:00 6,1 C 87 % 986,6 hPa 0,4 l/m 0,0 km/h N 4,1 C 6,1 C 0,0 km/h
16.12.2014 21:00 6,0 C 87 % 986,9 hPa 0,4 l/m 0,0 km/h O 4,0 C 6,0 C 0,0 km/h
16.12.2014 22:00 5,0 C 87 % 987,4 hPa 0,4 l/m 0,0 km/h SO 3,0 C 5,0 C 0,0 km/h
16.12.2014 23:00 4,4 C 87 % 987,8 hPa 0,0 l/m 0,0 km/h SO 2,4 C 4,4 C 0,0 km/h
17.12.2014 00:00 4,1 C 87 % 987,6 hPa 0,0 l/m 0,0 km/h SO 2,1 C 4,1 C 0,0 km/h
17.12.2014 01:00 4,1 C 87 % 987,4 hPa 0,0 l/m 0,0 km/h SO 2,1 C 4,1 C 0,0 km/h
17.12.2014 02:00 3,9 C 87 % 987,8 hPa 0,0 l/m 0,0 km/h SO 1,9 C 3,9 C 0,0 km/h
17.12.2014 03:00 3,9 C 86 % 987,4 hPa 0,0 l/m 0,7 km/h SO 1,8 C 3,9 C 0,7 km/h
17.12.2014 04:00 3,0 C 86 % 987,0 hPa 0,0 l/m 0,0 km/h SO 0,9 C 3,0 C 0,0 km/h
17.12.2014 05:00 2,8 C 86 % 986,6 hPa 0,0 l/m 0,0 km/h SO 0,7 C 2,8 C 0,0 km/h
17.12.2014 06:00 2,4 C 86 % 986,8 hPa 0,0 l/m 0,0 km/h O-NO 0,3 C 2,4 C 0,0 km/h
17.12.2014 07:00 2,8 C 85 % 986,6 hPa 0,0 l/m 0,0 km/h S 0,5 C 2,8 C 0,0 km/h
17.12.2014 08:00 3,6 C 85 % 985,8 hPa 0,0 l/m 0,0 km/h W-SW 1,3 C 3,6 C 0,0 km/h
17.12.2014 09:00 5,0 C 86 % 985,4 hPa 0,0 l/m 3,2 km/h S-SW 2,9 C 5,0 C 1,8 km/h
17.12.2014 10:00 4,6 C 84 % 985,1 hPa 0,0 l/m 9,7 km/h SW 2,1 C 1,8 C 5,4 km/h
17.12.2014 11:00 5,1 C 86 % 983,7 hPa 0,2 l/m 9,1 km/h SW 3,0 C 2,8 C 5,0 km/h
17.12.2014 12:00 5,3 C 84 % 982,7 hPa 0,0 l/m 11,7 km/h SW 2,8 C 1,3 C 6,5 km/h
17.12.2014 13:00 4,8 C 87 % 982,0 hPa 0,2 l/m 5,2 km/h W-SW 2,8 C 4,8 C 2,9 km/h
17.12.2014 14:00 4,6 C 87 % 981,5 hPa 0,2 l/m 0,0 km/h S-SW 2,6 C 4,6 C 0,0 km/h
17.12.2014 15:00 5,2 C 87 % 981,8 hPa 0,4 l/m 7,1 km/h S 3,2 C 4,6 C 4,0 km/h
17.12.2014 16:00 5,6 C 87 % 982,0 hPa 0,4 l/m 3,2 km/h SO 3,6 C 5,6 C 1,8 km/h
17.12.2014 17:00 5,9 C 87 % 983,0 hPa 0,2 l/m 10,4 km/h S-SW 3,9 C 2,8 C 5,8 km/h
17.12.2014 18:00 6,2 C 87 % 983,9 hPa 0,0 l/m 3,2 km/h W-SW 4,2 C 6,2 C 1,8 km/h
17.12.2014 19:00 6,4 C 86 % 984,6 hPa 0,2 l/m 7,6 km/h W-SW 4,2 C 5,4 C 7,6 km/h
17.12.2014 20:00 7,0 C 87 % 985,1 hPa 0,0 l/m 7,6 km/h S 5,0 C 6,0 C 7,6 km/h
17.12.2014 21:00 7,6 C 87 % 985,7 hPa 0,0 l/m 1,4 km/h W-SW 5,6 C 7,6 C 1,4 km/h
17.12.2014 22:00 7,9 C 87 % 986,1 hPa 0,0 l/m 0,0 km/h W-SW 5,9 C 7,9 C 0,0 km/h
17.12.2014 23:00 8,4 C 86 % 986,7 hPa 0,0 l/m 10,8 km/h SW 6,2 C 5,3 C 10,8 km/h
18.12.2014 00:00 7,9 C 87 % 987,0 hPa 0,0 l/m 9,4 km/h SW 5,9 C 5,7 C 9,4 km/h
18.12.2014 01:00 8,9 C 87 % 987,1 hPa 0,0 l/m 13,0 km/h SW 6,9 C 4,7 C 13,0 km/h
18.12.2014 02:00 8,9 C 87 % 987,5 hPa 0,0 l/m 1,8 km/h W-SW 6,9 C 8,9 C 1,8 km/h
18.12.2014 03:00 9,0 C 87 % 987,4 hPa 0,0 l/m 14,4 km/h W-SW 7,0 C 4,2 C 14,4 km/h
18.12.2014 04:00 9,2 C 87 % 987,4 hPa 0,0 l/m 2,2 km/h SW 7,2 C 9,2 C 2,2 km/h
18.12.2014 05:00 9,4 C 87 % 987,4 hPa 0,0 l/m 1,8 km/h S-SW 7,3 C 9,4 C 1,8 km/h
18.12.2014 06:00 9,2 C 87 % 987,4 hPa 0,0 l/m 0,0 km/h S-SW 7,2 C 9,2 C 0,0 km/h
18.12.2014 07:00 9,3 C 87 % 987,7 hPa 0,0 l/m 11,0 km/h S-SW 7,2 C 6,2 C 6,1 km/h
18.12.2014 08:00 10,3 C 87 % 987,9 hPa 0,0 l/m 11,7 km/h W-SW 8,2 C 7,0 C 6,5 km/h
18.12.2014 09:00 10,6 C 86 % 988,3 hPa 0,0 l/m 24,6 km/h S 8,4 C 2,7 C 13,7 km/h
18.12.2014 10:00 10,5 C 87 % 988,6 hPa 0,2 l/m 0,6 km/h S-SW 8,4 C 10,5 C 0,4 km/h
18.12.2014 11:00 11,2 C 86 % 988,9 hPa 0,0 l/m 22,7 km/h SW 8,9 C 4,1 C 12,6 km/h
18.12.2014 12:00 10,6 C 87 % 988,8 hPa 0,2 l/m 0,0 km/h S-SW 8,5 C 10,6 C 0,0 km/h
18.12.2014 13:00 11,3 C 87 % 989,0 hPa 0,0 l/m 5,8 km/h S 9,2 C 11,3 C 5,8 km/h
18.12.2014 14:00 11,8 C 86 % 989,3 hPa 0,0 l/m 11,2 km/h S-SW 9,5 C 9,0 C 11,2 km/h
18.12.2014 15:00 11,9 C 86 % 989,8 hPa 0,0 l/m 10,8 km/h W-SW 9,6 C 9,3 C 10,8 km/h
18.12.2014 16:00 12,1 C 86 % 990,5 hPa 0,0 l/m 8,3 km/h S-SW 9,8 C 10,9 C 8,3 km/h
18.12.2014 17:00 11,9 C 87 % 991,1 hPa 0,0 l/m 11,5 km/h SW 9,8 C 8,9 C 11,5 km/h
18.12.2014 18:00 12,5 C 86 % 991,6 hPa 0,0 l/m 18,7 km/h SW 10,2 C 6,9 C 18,7 km/h
18.12.2014 19:00 12,4 C 86 % 991,9 hPa 0,0 l/m 10,1 km/h W-SW 10,1 C 10,2 C 10,1 km/h
18.12.2014 20:00 12,6 C 84 % 992,3 hPa 0,0 l/m 13,0 km/h SW 10,0 C 9,1 C 13,0 km/h
18.12.2014 21:00 12,4 C 82 % 992,9 hPa 0,0 l/m 22,0 km/h SW 9,4 C 5,8 C 22,0 km/h
18.12.2014 22:00 12,2 C 84 % 993,3 hPa 0,0 l/m 11,5 km/h S-SW 9,6 C 9,3 C 11,5 km/h
18.12.2014 23:00 11,8 C 82 % 993,9 hPa 0,0 l/m 11,2 km/h SW 8,8 C 9,0 C 11,2 km/h
19.12.2014 00:00 11,2 C 81 % 993,5 hPa 0,0 l/m 7,2 km/h SW 8,1 C 10,6 C 7,2 km/h
19.12.2014 01:00 10,0 C 82 % 993,2 hPa 0,0 l/m 11,5 km/h W-SW 7,1 C 6,8 C 11,5 km/h
19.12.2014 02:00 10,2 C 83 % 993,2 hPa 0,0 l/m 4,3 km/h W-SW 7,4 C 10,2 C 4,3 km/h
19.12.2014 03:00 10,3 C 84 % 992,9 hPa 0,0 l/m 10,8 km/h S-SO 7,7 C 7,5 C 10,8 km/h
19.12.2014 04:00 10,5 C 82 % 992,4 hPa 0,0 l/m 7,9 km/h W-SW 7,6 C 9,4 C 7,9 km/h
19.12.2014 05:00 10,4 C 84 % 992,4 hPa 0,0 l/m 14,4 km/h SW 7,8 C 5,9 C 14,4 km/h
19.12.2014 06:00 11,2 C 81 % 992,4 hPa 0,0 l/m 34,3 km/h SW 8,1 C 1,5 C 19,1 km/h
19.12.2014 07:00 11,2 C 82 % 992,5 hPa 0,0 l/m 16,2 km/h S-SW 8,2 C 6,1 C 9,0 km/h
19.12.2014 08:00 11,3 C 82 % 992,4 hPa 0,0 l/m 19,4 km/h W-SW 8,3 C 5,2 C 10,8 km/h
19.12.2014 09:00 11,2 C 82 % 993,2 hPa 0,0 l/m 13,0 km/h W-SW 8,2 C 7,4 C 13,0 km/h
19.12.2014 10:00 11,3 C 79 % 993,3 hPa 0,0 l/m 11,9 km/h W-SW 7,8 C 8,1 C 11,9 km/h
19.12.2014 11:00 12,2 C 75 % 992,7 hPa 0,0 l/m 26,6 km/h SW 7,9 C 4,4 C 14,8 km/h
19.12.2014 12:00 11,3 C 76 % 991,9 hPa 0,0 l/m 27,2 km/h W-SW 7,2 C 3,1 C 15,1 km/h
19.12.2014 13:00 11,3 C 75 % 991,6 hPa 0,0 l/m 21,4 km/h S-SW 7,0 C 4,6 C 11,9 km/h
19.12.2014 14:00 11,0 C 77 % 991,3 hPa 0,0 l/m 22,0 km/h SW 7,1 C 4,0 C 12,2 km/h
19.12.2014 15:00 11,0 C 77 % 991,3 hPa 0,0 l/m 32,4 km/h W-SW 7,1 C 1,6 C 18,0 km/h
19.12.2014 16:00 11,1 C 77 % 991,0 hPa 0,0 l/m 36,9 km/h W-SW 7,2 C 1,0 C 20,5 km/h
19.12.2014 17:00 11,0 C 78 % 990,8 hPa 0,0 l/m 36,3 km/h SW 7,3 C 0,9 C 20,2 km/h
19.12.2014 18:00 10,3 C 83 % 991,0 hPa 0,0 l/m 29,8 km/h W 7,5 C 1,1 C 16,6 km/h
19.12.2014 19:00 10,9 C 81 % 991,3 hPa 0,0 l/m 12,2 km/h W-SW 7,8 C 7,5 C 12,2 km/h
19.12.2014 20:00 9,9 C 85 % 992,2 hPa 0,0 l/m 13,3 km/h W 7,5 C 5,8 C 13,3 km/h
19.12.2014 21:00 9,7 C 86 % 993,0 hPa 0,2 l/m 6,5 km/h W 7,5 C 9,7 C 6,5 km/h
19.12.2014 22:00 9,5 C 86 % 994,0 hPa 0,2 l/m 0,0 km/h W 7,3 C 9,5 C 0,0 km/h
19.12.2014 23:00 9,6 C 86 % 994,5 hPa 0,0 l/m 0,0 km/h W 7,4 C 9,6 C 0,0 km/h
20.12.2014 00:00 9,3 C 87 % 995,2 hPa 0,0 l/m 0,0 km/h W 7,2 C 9,3 C 0,0 km/h
20.12.2014 01:00 8,5 C 86 % 995,4 hPa 0,0 l/m 0,0 km/h S-SO 6,3 C 8,5 C 0,0 km/h
20.12.2014 02:00 6,9 C 87 % 995,9 hPa 0,0 l/m 0,0 km/h NO 4,9 C 6,9 C 0,0 km/h
20.12.2014 03:00 6,2 C 87 % 996,6 hPa 0,0 l/m 0,0 km/h NW 4,2 C 6,2 C 0,0 km/h
20.12.2014 04:00 6,6 C 87 % 997,3 hPa 0,0 l/m 0,0 km/h N-NW 4,6 C 6,6 C 0,0 km/h
20.12.2014 05:00 6,2 C 87 % 997,8 hPa 0,0 l/m 0,0 km/h N 4,2 C 6,2 C 0,0 km/h
20.12.2014 06:00 5,3 C 86 % 998,1 hPa 0,0 l/m 0,0 km/h N-NO 3,2 C 5,3 C 0,0 km/h
20.12.2014 07:00 5,1 C 86 % 998,4 hPa 0,0 l/m 0,0 km/h W-SW 3,0 C 5,1 C 0,0 km/h
20.12.2014 08:00 5,2 C 86 % 998,8 hPa 0,0 l/m 11,0 km/h W-SW 3,1 C 1,6 C 6,1 km/h
20.12.2014 09:00 6,1 C 81 % 999,3 hPa 0,0 l/m 5,8 km/h W 3,1 C 6,1 C 3,2 km/h
20.12.2014 10:00 9,4 C 76 % 999,5 hPa 0,0 l/m 21,4 km/h W 5,4 C 2,1 C 11,9 km/h
20.12.2014 11:00 7,9 C 72 % 998,3 hPa 0,0 l/m 21,4 km/h W 3,2 C 0,1 C 11,9 km/h
20.12.2014 12:00 9,3 C 71 % 997,8 hPa 0,0 l/m 9,7 km/h W-SW 4,3 C 7,0 C 5,4 km/h
20.12.2014 13:00 7,5 C 73 % 997,9 hPa 0,0 l/m 22,7 km/h W-SW 3,0 C -0,9 C 12,6 km/h
20.12.2014 14:00 7,8 C 71 % 997,6 hPa 0,0 l/m 33,7 km/h W-SW 2,9 C -3,2 C 18,7 km/h
20.12.2014 15:00 6,9 C 73 % 998,3 hPa 0,0 l/m 23,3 km/h W-SW 2,4 C -1,8 C 13,0 km/h
20.12.2014 16:00 6,4 C 73 % 998,0 hPa 0,0 l/m 15,6 km/h W-SW 1,9 C 0,5 C 8,6 km/h
20.12.2014 17:00 6,1 C 75 % 998,5 hPa 0,0 l/m 31,1 km/h SW 2,0 C -5,1 C 17,3 km/h
20.12.2014 18:00 5,9 C 75 % 999,2 hPa 0,0 l/m 25,3 km/h W-SW 1,8 C -3,8 C 14,0 km/h
20.12.2014 19:00 6,1 C 75 % 999,9 hPa 0,0 l/m 20,5 km/h W 2,0 C -1,9 C 20,5 km/h
20.12.2014 20:00 5,8 C 78 % 1000,9 hPa 0,0 l/m 18,4 km/h W-NW 2,3 C -1,5 C 18,4 km/h
20.12.2014 21:00 4,9 C 83 % 1001,7 hPa 0,0 l/m 12,6 km/h W-SW 2,3 C 0,3 C 12,6 km/h
20.12.2014 22:00 4,7 C 84 % 1001,8 hPa 0,0 l/m 15,5 km/h W 2,2 C -1,5 C 15,5 km/h
20.12.2014 23:00 4,4 C 86 % 1002,5 hPa 0,0 l/m 11,2 km/h W 2,3 C 0,6 C 11,2 km/h
21.12.2014 00:00 4,2 C 86 % 1003,3 hPa 0,2 l/m 1,8 km/h S-SO 2,1 C 4,2 C 1,8 km/h
21.12.2014 01:00 4,1 C 87 % 1003,3 hPa 0,0 l/m 4,7 km/h W 2,1 C 4,1 C 4,7 km/h
21.12.2014 02:00 4,5 C 87 % 1003,8 hPa 0,0 l/m 6,1 km/h W 2,5 C 4,5 C 6,1 km/h
21.12.2014 03:00 4,7 C 86 % 1004,4 hPa 0,0 l/m 0,0 km/h S-SW 2,6 C 4,7 C 0,0 km/h
21.12.2014 04:00 4,5 C 87 % 1004,7 hPa 0,0 l/m 0,0 km/h N-NW 2,5 C 4,5 C 0,0 km/h
21.12.2014 05:00 4,3 C 87 % 1004,5 hPa 0,0 l/m 0,0 km/h NW 2,3 C 4,3 C 0,0 km/h
21.12.2014 06:00 4,0 C 87 % 1004,7 hPa 0,0 l/m 0,0 km/h SO 2,0 C 4,0 C 0,0 km/h
21.12.2014 07:00 3,5 C 87 % 1004,9 hPa 0,0 l/m 0,0 km/h NO 1,5 C 3,5 C 0,0 km/h
21.12.2014 08:00 2,2 C 87 % 1005,2 hPa 0,0 l/m 0,0 km/h O-SO 0,3 C 2,2 C 0,0 km/h
21.12.2014 09:00 9,5 C 82 % 1005,1 hPa 0,0 l/m 0,0 km/h SW 6,6 C 9,5 C 0,0 km/h
21.12.2014 10:00 13,1 C 68 % 1004,9 hPa 0,0 l/m 13,0 km/h W 7,3 C 9,7 C 7,2 km/h
21.12.2014 11:00 9,3 C 73 % 1004,9 hPa 0,0 l/m 6,5 km/h W 4,7 C 9,3 C 3,6 km/h
21.12.2014 12:00 9,8 C 69 % 1004,5 hPa 0,0 l/m 14,9 km/h SW 4,4 C 4,9 C 8,3 km/h
21.12.2014 13:00 7,8 C 73 % 1004,1 hPa 0,0 l/m 22,7 km/h S-SW 3,3 C -0,5 C 12,6 km/h
21.12.2014 14:00 7,8 C 75 % 1003,6 hPa 0,0 l/m 18,8 km/h W-SW 3,7 C 0,9 C 10,4 km/h
21.12.2014 15:00 6,9 C 77 % 1003,5 hPa 0,0 l/m 4,5 km/h W 3,2 C 6,9 C 2,5 km/h
21.12.2014 16:00 6,1 C 79 % 1004,1 hPa 0,0 l/m 4,5 km/h W-SW 2,7 C 6,1 C 2,5 km/h
21.12.2014 17:00 6,1 C 78 % 1003,6 hPa 0,0 l/m 23,3 km/h W 2,6 C -2,9 C 13,0 km/h
21.12.2014 18:00 6,1 C 79 % 1004,3 hPa 0,0 l/m 0,0 km/h W-SW 2,7 C 6,1 C 0,0 km/h
21.12.2014 19:00 6,3 C 78 % 1004,0 hPa 0,0 l/m 2,2 km/h SW 2,8 C 6,3 C 2,2 km/h
21.12.2014 20:00 6,6 C 76 % 1003,7 hPa 0,0 l/m 9,7 km/h W-SW 2,7 C 4,0 C 9,7 km/h
21.12.2014 21:00 6,6 C 76 % 1003,4 hPa 0,0 l/m 11,9 km/h W-SW 2,7 C 2,7 C 11,9 km/h
21.12.2014 22:00 6,5 C 75 % 1003,4 hPa 0,0 l/m 13,3 km/h W-SW 2,4 C 1,8 C 13,3 km/h
21.12.2014 23:00 6,3 C 75 % 1003,0 hPa 0,0 l/m 10,4 km/h W-SW 2,2 C 3,2 C 10,4 km/h
Min-Datum _ 21.12.14 21.12.14 17.12.14 - 15.12.14 - 21.12.14 20.12.14 15.12.14
_ Min-Zeit 08:53 10:53 14:53 - 00:53 - 08:53 17:53 00:53
Minimum _ 2,2 C 68 % 981,5 hPa - 0,0 km/h - 0,3 C -5,1 C 0,0 km/h
Max-Datum _ 21.12.14 15.12.14 21.12.14 16.12.14 19.12.14 - 18.12.14 18.12.14 18.12.14
_ Max-Zeit 10:53 08:53 08:53 20:53 16:53 - 18:53 13:53 21:53
Maximum _ 13,1 C 87 % 1005,2 hPa 0,4 l/m 36,9 km/h
W-SW
- 10,2 C 11,3 C 22,0 km/h
SW
Durchschnitt _ 7,7 C 84 % 991,8 hPa #4,3 l/m 7,6 km/h W-SW 5,0 C 5,5 C 5,5 km/h
www.sexauwetter.de